Kimberly, Idaho
Current Conditions -  °F | °C
As of 1:53 AM on Saturday 22 Nov 2014 (Local Time) from KTWF Reporting Station
Overcast Overcast  
Wind Chill: 41°   Ceiling: 4800
Heat Index: 46°   Visibility: 10mi
Dew Point: 31°   Wind: 12mph
Humidity: 56%   Direction: 190°S
Pressure: 29.84"   Gusts: NA
Location:  42.53°N, 114.36°W
Report Text: KTWF 220853Z AUTO 19010KT 10SM OVC048 08/M01 A2984 RMK AO2 RAE0755 SLP086 P0000 60000 T00781006 56017
Loading
Personal Weather Stations






























Interactive Weather Map New forecast layout! Learn more

10-Day Weather Forecast

Advertisements
Track Severe Weather on mobile